Time;durP1;ratioP1;P1;durP2;ratioP2;P2;SDS_P1;SDS_P2;PMS_P1;PMS_P2;Temp;Humidity;BMP_temperature;BMP_pressure;BME280_temperature;BME280_humidity;BME280_pressure;Samples;Min_cycle;Max_cycle;Signal;HPM_P1;HPM_P2
2022/06/22 00:02:19;;;;;;;2.85;2.13;;;18.50;99.90;;;;;;5011762;28;20203;-73
2022/06/22 00:04:52;;;;;;;2.20;2.10;;;18.50;99.90;;;;;;5016967;28;20692;-73
2022/06/22 00:07:36;;;;;;;1.95;1.70;;;18.60;99.90;;;;;;5032429;28;20645;-72
2022/06/22 00:10:07;;;;;;;1.92;1.83;;;18.60;99.90;;;;;;5031962;28;20208;-73
2022/06/22 00:12:33;;;;;;;1.70;1.60;;;18.70;99.90;;;;;;5012188;28;20213;-73
2022/06/22 00:15:01;;;;;;;2.90;2.05;;;18.70;99.90;;;;;;5012647;28;20169;-73
2022/06/22 00:17:37;;;;;;;1.77;1.65;;;18.80;99.90;;;;;;5012286;28;20208;-72
2022/06/22 00:20:15;;;;;;;2.17;1.85;;;18.70;99.90;;;;;;5024796;28;20250;-72
2022/06/22 00:23:12;;;;;;;2.00;1.90;;;18.60;99.90;;;;;;5011961;28;20193;-73
2022/06/22 00:25:40;;;;;;;1.80;1.70;;;18.50;99.90;;;;;;5012107;28;20201;-73
2022/06/22 00:28:30;;;;;;;2.67;2.30;;;18.40;99.90;;;;;;5012107;28;20272;-73
2022/06/22 00:31:14;;;;;;;2.10;1.95;;;18.40;99.90;;;;;;5011558;28;20193;-72
2022/06/22 00:34:12;;;;;;;3.03;2.83;;;18.40;99.90;;;;;;5020904;28;20197;-72
2022/06/22 00:36:47;;;;;;;2.20;2.00;;;18.40;99.90;;;;;;5028288;28;20648;-72
2022/06/22 00:39:21;;;;;;;2.65;2.30;;;18.40;99.90;;;;;;5015811;28;20267;-72
2022/06/22 00:41:59;;;;;;;2.75;2.20;;;18.50;99.90;;;;;;5015595;28;20564;-73
2022/06/22 00:44:29;;;;;;;2.45;2.28;;;18.60;99.90;;;;;;5016058;28;20184;-72
2022/06/22 00:46:58;;;;;;;2.00;1.90;;;18.50;99.90;;;;;;5018840;28;20579;-72
2022/06/22 00:49:24;;;;;;;2.40;2.20;;;18.30;99.90;;;;;;5035417;28;20219;-72
2022/06/22 00:51:51;;;;;;;3.05;1.92;;;18.30;99.90;;;;;;5035076;28;20173;-72
2022/06/22 00:54:24;;;;;;;2.15;2.00;;;18.30;99.90;;;;;;5035751;28;20165;-72
2022/06/22 00:57:04;;;;;;;2.28;1.90;;;18.30;99.90;;;;;;5020209;28;20269;-72
2022/06/22 00:59:44;;;;;;;2.72;2.20;;;18.30;99.90;;;;;;5014370;28;20589;-75
2022/06/22 01:02:37;;;;;;;2.22;2.08;;;18.30;99.90;;;;;;5022979;28;20705;-74
2022/06/22 01:05:11;;;;;;;4.13;2.50;;;18.30;99.90;;;;;;5023906;28;20189;-73
2022/06/22 01:08:10;;;;;;;5.47;2.58;;;18.30;99.90;;;;;;5015373;28;20220;-74
2022/06/22 01:10:41;;;;;;;4.90;2.15;;;18.20;99.90;;;;;;5015255;28;20886;-73
2022/06/22 01:13:23;;;;;;;2.15;2.05;;;18.20;99.90;;;;;;5015262;28;20201;-73
2022/06/22 01:15:54;;;;;;;2.83;2.13;;;18.10;99.90;;;;;;5019898;28;20184;-73
2022/06/22 01:18:28;;;;;;;2.30;2.20;;;18.10;99.90;;;;;;5034535;28;20687;-72
2022/06/22 01:21:09;;;;;;;2.33;2.10;;;18.10;99.90;;;;;;5033668;28;20571;-72
2022/06/22 01:23:56;;;;;;;2.50;2.30;;;18.00;99.90;;;;;;5033005;28;20204;-73
2022/06/22 01:26:43;;;;;;;2.38;2.20;;;17.90;99.90;;;;;;5035292;28;20165;-72
2022/06/22 01:29:21;;;;;;;2.22;2.13;;;17.80;99.90;;;;;;5034728;28;20176;-73
2022/06/22 01:31:58;;;;;;;2.38;2.20;;;17.70;99.90;;;;;;5018216;28;20602;-75
2022/06/22 01:34:28;;;;;;;2.20;2.10;;;17.70;99.90;;;;;;5014740;28;20161;-73
2022/06/22 01:37:01;;;;;;;2.65;2.38;;;17.60;99.90;;;;;;5014723;28;20705;-73
2022/06/22 01:39:26;;;;;;;2.55;2.35;;;17.50;99.90;;;;;;5014409;28;20220;-73
2022/06/22 01:42:12;;;;;;;2.65;2.38;;;17.40;99.90;;;;;;5013951;28;20590;-73
2022/06/22 01:44:59;;;;;;;2.22;2.13;;;17.30;99.90;;;;;;5019653;28;20222;-73
2022/06/22 01:47:51;;;;;;;2.00;1.90;;;17.30;99.90;;;;;;5034348;28;20382;-73
2022/06/22 01:50:38;;;;;;;2.17;2.08;;;17.30;99.90;;;;;;5013842;28;20555;-73
2022/06/22 01:53:24;;;;;;;2.20;2.00;;;17.30;99.90;;;;;;5014215;28;20193;-73
2022/06/22 01:55:56;;;;;;;2.72;2.28;;;17.30;99.90;;;;;;5013764;28;20203;-74
2022/06/22 01:58:39;;;;;;;3.55;2.53;;;17.20;99.90;;;;;;5013987;28;20285;-73
2022/06/22 02:01:35;;;;;;;3.92;2.40;;;17.10;99.90;;;;;;5014133;28;20625;-73
2022/06/22 02:04:01;;;;;;;2.40;2.25;;;17.00;99.90;;;;;;5013985;28;20204;-73
2022/06/22 02:10:01;;;;;;;2.38;2.28;;;16.90;99.90;;;;;;5014570;28;20227;-73
2022/06/22 02:12:35;;;;;;;2.15;2.05;;;16.90;99.90;;;;;;5013588;28;20208;-73
2022/06/22 02:15:18;;;;;;;2.55;2.33;;;16.80;99.90;;;;;;5031640;28;20188;-73
2022/06/22 02:17:45;;;;;;;2.75;2.60;;;16.80;99.90;;;;;;5033743;28;20216;-72
2022/06/22 02:20:31;;;;;;;2.58;2.38;;;16.80;99.90;;;;;;5033843;28;20176;-72
2022/06/22 02:23:04;;;;;;;2.40;2.20;;;16.80;99.90;;;;;;5033536;28;20502;-73
2022/06/22 02:25:35;;;;;;;2.97;2.58;;;16.80;99.90;;;;;;5016868;28;20232;-73
2022/06/22 02:28:01;;;;;;;2.20;1.95;;;16.80;99.90;;;;;;5033181;28;20251;-75
2022/06/22 02:30:27;;;;;;;2.97;2.20;;;16.70;99.90;;;;;;5028033;28;20207;-74
2022/06/22 02:32:53;;;;;;;2.85;2.03;;;16.80;99.90;;;;;;5030845;28;20200;-73
2022/06/22 02:35:19;;;;;;;4.13;2.45;;;16.80;99.90;;;;;;5013435;28;20184;-73
2022/06/22 02:37:55;;;;;;;3.00;2.80;;;16.80;99.90;;;;;;5013647;28;20599;-74
2022/06/22 02:40:25;;;;;;;2.42;2.20;;;16.80;99.90;;;;;;5013969;28;20173;-73
2022/06/22 02:45:37;;;;;;;2.58;2.20;;;16.80;99.90;;;;;;5014045;28;20212;-73
2022/06/22 02:48:12;;;;;;;2.40;2.20;;;16.80;99.90;;;;;;5013574;28;20605;-73
2022/06/22 02:50:58;;;;;;;2.30;2.15;;;16.70;99.90;;;;;;5013321;28;20195;-74
2022/06/22 02:53:26;;;;;;;2.17;2.08;;;16.70;99.90;;;;;;5012694;28;20197;-75
2022/06/22 02:55:53;;;;;;;2.10;2.00;;;16.70;99.90;;;;;;5012212;28;20173;-75
2022/06/22 02:58:31;;;;;;;2.25;1.90;;;16.70;99.90;;;;;;5030032;28;20223;-73
2022/06/22 03:00:59;;;;;;;2.50;2.30;;;16.70;99.90;;;;;;5032128;28;20227;-72
2022/06/22 03:03:25;;;;;;;2.75;2.00;;;16.60;99.90;;;;;;5032679;28;20224;-73
2022/06/22 03:05:55;;;;;;;2.03;2.03;;;16.60;99.90;;;;;;5031092;28;20215;-73
2022/06/22 03:08:22;;;;;;;2.40;2.20;;;16.60;99.90;;;;;;5032634;28;20265;-72
2022/06/22 03:11:01;;;;;;;2.58;2.17;;;16.60;99.90;;;;;;5029008;28;20196;-73
2022/06/22 03:13:33;;;;;;;4.65;2.42;;;16.60;99.90;;;;;;5031314;28;20262;-72
2022/06/22 03:16:00;;;;;;;2.80;2.35;;;16.60;99.90;;;;;;5032868;28;20169;-72
2022/06/22 03:18:29;;;;;;;2.60;2.40;;;16.60;99.90;;;;;;5032888;28;20200;-72
2022/06/22 03:21:07;;;;;;;2.47;2.28;;;16.60;99.90;;;;;;5032997;28;20264;-72
2022/06/22 03:23:57;;;;;;;2.20;2.08;;;16.60;99.90;;;;;;5032668;28;20622;-73
2022/06/22 03:26:27;;;;;;;2.67;2.47;;;16.60;99.90;;;;;;5031836;28;20188;-73
2022/06/22 03:29:08;;;;;;;2.75;2.25;;;16.60;99.90;;;;;;5032555;28;20168;-72
2022/06/22 03:31:43;;;;;;;2.40;2.30;;;16.60;99.90;;;;;;5026265;28;20193;-72
2022/06/22 03:34:15;;;;;;;2.38;2.03;;;16.50;99.90;;;;;;5012565;28;20197;-73
2022/06/22 03:37:00;;;;;;;3.28;2.28;;;16.60;99.90;;;;;;5012813;28;20641;-73
2022/06/22 03:39:31;;;;;;;2.38;2.20;;;16.60;99.90;;;;;;5014128;28;20209;-72
2022/06/22 03:42:01;;;;;;;2.83;2.40;;;16.70;99.90;;;;;;5012828;28;20192;-73
2022/06/22 03:44:38;;;;;;;2.00;1.90;;;16.70;99.90;;;;;;5012875;28;20173;-73
2022/06/22 03:47:14;;;;;;;2.42;2.22;;;16.80;99.90;;;;;;5011349;28;20184;-73
2022/06/22 03:49:49;;;;;;;2.53;2.33;;;16.80;99.90;;;;;;5014980;28;20637;-72
2022/06/22 03:52:44;;;;;;;2.63;2.50;;;16.90;99.90;;;;;;5041346;28;20283;-73
2022/06/22 03:55:17;;;;;;;2.70;2.50;;;17.00;99.90;;;;;;5012901;28;20177;-73
2022/06/22 03:57:49;;;;;;;2.40;2.20;;;17.10;99.90;;;;;;5012836;28;20628;-72
2022/06/22 04:00:16;;;;;;;2.75;2.30;;;17.20;99.90;;;;;;5013042;28;20550;-72
2022/06/22 04:02:42;;;;;;;2.47;2.28;;;17.30;99.90;;;;;;5012382;28;20185;-73
2022/06/22 04:05:33;;;;;;;2.53;2.33;;;17.40;99.90;;;;;;5012016;28;20173;-74
2022/06/22 04:08:00;;;;;;;2.28;2.17;;;17.60;99.90;;;;;;5016791;28;20232;-72
2022/06/22 04:10:46;;;;;;;2.67;2.58;;;17.70;99.90;;;;;;5010992;28;20192;-72
2022/06/22 04:13:23;;;;;;;3.40;3.10;;;17.80;99.90;;;;;;5015244;28;20200;-73
2022/06/22 04:15:59;;;;;;;3.00;2.80;;;17.80;99.90;;;;;;5016642;28;20169;-73
2022/06/22 04:18:31;;;;;;;2.85;2.65;;;17.80;99.90;;;;;;5016256;28;20208;-72
2022/06/22 04:21:26;;;;;;;3.25;2.95;;;17.90;99.90;;;;;;5016248;28;20201;-73
2022/06/22 04:24:11;;;;;;;3.35;3.15;;;18.00;99.90;;;;;;5014105;28;20639;-72
2022/06/22 04:26:49;;;;;;;3.03;2.83;;;18.10;99.90;;;;;;5016495;28;20169;-73
2022/06/22 04:29:21;;;;;;;3.63;3.10;;;18.20;99.90;;;;;;5016091;28;20212;-74
2022/06/22 04:32:00;;;;;;;2.88;2.65;;;18.40;99.90;;;;;;5015911;28;20199;-75
2022/06/22 04:34:36;;;;;;;3.20;2.92;;;18.50;99.90;;;;;;5016155;28;20255;-73
2022/06/22 04:37:07;;;;;;;4.47;2.72;;;18.60;99.90;;;;;;5015438;28;20682;-73
2022/06/22 04:39:41;;;;;;;3.83;3.30;;;18.60;99.90;;;;;;5016164;28;20173;-73
2022/06/22 04:42:09;;;;;;;3.45;3.15;;;18.60;99.90;;;;;;5015717;28;20169;-73
2022/06/22 04:44:45;;;;;;;3.17;2.85;;;18.70;99.90;;;;;;5015706;28;20256;-72
2022/06/22 04:47:32;;;;;;;6.05;2.78;;;18.70;99.90;;;;;;5016072;28;20177;-73
2022/06/22 04:50:06;;;;;;;3.25;3.00;;;18.70;99.90;;;;;;5021425;28;20649;-73
2022/06/22 04:52:36;;;;;;;2.95;2.67;;;18.90;99.90;;;;;;5035168;28;20200;-74
2022/06/22 04:55:05;;;;;;;4.07;2.92;;;19.10;99.90;;;;;;5023797;28;20324;-72
2022/06/22 04:57:37;;;;;;;2.97;2.75;;;19.20;99.90;;;;;;5026339;28;20262;-72
2022/06/22 05:00:14;;;;;;;4.85;2.92;;;19.30;99.90;;;;;;5026294;28;20649;-73
2022/06/22 05:02:42;;;;;;;4.90;2.88;;;19.40;99.90;;;;;;5037552;28;20211;-76
2022/06/22 05:05:30;;;;;;;4.30;2.63;;;19.50;99.90;;;;;;5031795;28;20173;-73
2022/06/22 05:08:07;;;;;;;5.93;2.58;;;19.50;99.90;;;;;;5029934;28;20268;-73
2022/06/22 05:10:47;;;;;;;4.90;3.10;;;19.70;99.90;;;;;;5021569;28;20256;-73
2022/06/22 05:13:44;;;;;;;3.25;2.95;;;19.80;99.90;;;;;;5023597;28;20193;-73
2022/06/22 05:16:15;;;;;;;3.50;2.88;;;20.10;99.90;;;;;;5029435;28;20660;-73
2022/06/22 05:18:44;;;;;;;3.83;2.75;;;20.20;99.90;;;;;;5029265;28;20572;-73
2022/06/22 05:21:15;;;;;;;3.33;2.80;;;20.30;99.90;;;;;;5023336;28;20259;-72
2022/06/22 05:23:45;;;;;;;3.20;2.40;;;20.40;99.90;;;;;;5023687;28;20255;-73
2022/06/22 05:26:11;;;;;;;5.55;3.00;;;20.40;99.90;;;;;;5025296;28;20255;-74
2022/06/22 05:28:46;;;;;;;6.57;2.67;;;20.40;99.90;;;;;;5021955;28;20201;-74
2022/06/22 05:31:17;;;;;;;2.95;2.78;;;20.50;99.90;;;;;;5024113;28;20203;-73
2022/06/22 05:33:47;;;;;;;3.90;2.88;;;20.60;99.90;;;;;;5039063;28;20209;-73
2022/06/22 05:36:17;;;;;;;3.58;2.67;;;20.60;99.90;;;;;;5021567;28;20524;-74
2022/06/22 05:38:46;;;;;;;5.05;3.10;;;20.70;99.90;;;;;;5026193;28;20221;-74
2022/06/22 05:41:22;;;;;;;7.05;3.00;;;21.00;99.90;;;;;;5019989;28;20181;-74
2022/06/22 05:43:49;;;;;;;6.55;2.60;;;21.30;99.90;;;;;;5014442;28;20203;-74
2022/06/22 05:46:15;;;;;;;4.78;2.53;;;21.50;99.90;;;;;;5021471;28;20260;-74
2022/06/22 05:48:44;;;;;;;3.17;2.53;;;21.60;99.90;;;;;;5029499;28;20214;-74
2022/06/22 05:51:33;;;;;;;3.40;3.10;;;21.50;99.90;;;;;;5029781;28;20182;-74
2022/06/22 05:54:12;;;;;;;3.10;2.80;;;21.30;99.90;;;;;;5023386;28;20217;-73
2022/06/22 05:56:45;;;;;;;4.50;2.60;;;21.10;99.90;;;;;;5028915;28;20678;-73
2022/06/22 05:59:16;;;;;;;4.70;2.85;;;20.90;99.90;;;;;;5020409;28;20213;-73
2022/06/22 06:01:56;;;;;;;7.32;2.70;;;20.80;99.90;;;;;;5023170;28;20524;-73
2022/06/22 06:04:40;;;;;;;4.47;2.63;;;20.80;99.90;;;;;;5020317;28;20165;-74
2022/06/22 06:07:30;;;;;;;3.33;3.03;;;20.90;99.90;;;;;;5024580;28;20551;-74
2022/06/22 06:09:56;;;;;;;4.85;2.80;;;21.00;99.90;;;;;;5026323;28;20223;-75
2022/06/22 06:12:29;;;;;;;5.35;2.70;;;21.20;99.90;;;;;;5021662;28;20808;-74
2022/06/22 06:14:55;;;;;;;2.58;2.30;;;21.50;99.90;;;;;;5022989;28;20172;-74
2022/06/22 06:17:27;;;;;;;4.03;2.70;;;22.00;99.90;;;;;;5016150;28;20211;-77
2022/06/22 06:19:54;;;;;;;4.90;2.30;;;22.40;99.90;;;;;;5012486;28;20177;-74
2022/06/22 06:22:22;;;;;;;3.33;2.58;;;22.80;99.90;;;;;;5014268;28;20190;-74
2022/06/22 06:27:43;;;;;;;3.20;2.60;;;22.50;99.90;;;;;;5033230;28;20175;-74
2022/06/22 06:30:32;;;;;;;7.70;2.60;;;22.20;99.90;;;;;;5032543;28;20188;-74
2022/06/22 06:33:19;;;;;;;2.88;2.65;;;22.00;99.90;;;;;;5025771;28;20671;-73
2022/06/22 06:36:07;;;;;;;3.17;2.80;;;21.90;99.90;;;;;;5013091;28;20213;-75
2022/06/22 06:38:40;;;;;;;11.20;2.88;;;22.00;99.90;;;;;;5013095;28;20216;-73
2022/06/22 06:41:17;;;;;;;2.90;2.70;;;22.20;99.90;;;;;;5013149;28;20200;-76
2022/06/22 06:43:47;;;;;;;3.45;2.65;;;22.60;99.90;;;;;;5018943;28;20236;-73
2022/06/22 06:46:38;;;;;;;3.25;2.45;;;22.90;99.90;;;;;;5020748;28;20177;-74
2022/06/22 06:49:32;;;;;;;2.75;1.85;;;23.30;99.90;;;;;;5025921;28;20184;-73
2022/06/22 06:52:02;;;;;;;2.92;2.58;;;23.50;99.90;;;;;;5025151;28;20176;-74
2022/06/22 06:54:35;;;;;;;2.50;2.15;;;23.50;98.80;;;;;;5020295;28;20227;-73
2022/06/22 06:57:04;;;;;;;2.70;2.50;;;23.80;99.00;;;;;;5047235;28;20255;-73
2022/06/22 06:59:31;;;;;;;4.20;2.42;;;24.00;98.20;;;;;;5031503;28;20207;-73
2022/06/22 07:02:05;;;;;;;3.03;2.70;;;24.20;97.60;;;;;;5028866;28;20272;-73
2022/06/22 07:04:35;;;;;;;2.50;2.28;;;24.20;97.30;;;;;;5037515;28;20177;-74
2022/06/22 07:07:31;;;;;;;3.15;2.50;;;24.30;97.60;;;;;;5036420;28;20185;-73
2022/06/22 07:10:05;;;;;;;3.83;2.67;;;24.40;98.30;;;;;;5025097;28;20172;-75
2022/06/22 07:12:40;;;;;;;2.92;2.50;;;24.30;97.20;;;;;;5038371;28;20210;-74
2022/06/22 07:15:09;;;;;;;3.22;2.83;;;24.30;97.50;;;;;;5020383;28;20177;-72
2022/06/22 07:17:35;;;;;;;3.95;2.45;;;24.20;97.30;;;;;;5012627;28;20205;-71
2022/06/22 07:20:16;;;;;;;2.88;2.45;;;24.20;96.50;;;;;;5013743;28;20177;-73
2022/06/22 07:22:50;;;;;;;3.38;2.70;;;24.30;96.80;;;;;;5022223;28;20582;-72
2022/06/22 07:25:19;;;;;;;3.85;2.20;;;24.40;96.00;;;;;;5023516;28;20188;-72
2022/06/22 07:27:49;;;;;;;3.33;2.75;;;24.60;95.10;;;;;;5026063;28;20314;-72
2022/06/22 07:30:34;;;;;;;2.95;2.30;;;24.70;95.20;;;;;;5031964;28;20338;-72
2022/06/22 07:33:27;;;;;;;4.47;2.67;;;24.70;96.70;;;;;;5019396;28;20223;-72
2022/06/22 07:35:56;;;;;;;3.53;2.60;;;24.70;96.80;;;;;;5020186;28;20188;-72
2022/06/22 07:39:01;;;;;;;2.70;2.50;;;24.80;96.10;;;;;;5031792;28;20231;-71
2022/06/22 07:41:29;;;;;;;2.58;2.47;;;24.90;96.30;;;;;;5023774;28;20674;-72
2022/06/22 07:43:54;;;;;;;5.22;2.33;;;25.00;95.90;;;;;;5031840;28;20184;-72
2022/06/22 07:46:32;;;;;;;4.57;2.20;;;25.00;95.80;;;;;;5031463;28;20172;-71
2022/06/22 07:49:10;;;;;;;2.78;2.53;;;25.00;95.10;;;;;;5018641;28;20277;-70
2022/06/22 07:51:41;;;;;;;3.45;2.67;;;25.00;96.90;;;;;;5011687;28;20264;-72
2022/06/22 07:54:26;;;;;;;4.40;2.65;;;25.10;96.70;;;;;;5011774;28;20217;-73
2022/06/22 07:56:55;;;;;;;4.68;2.80;;;25.10;96.90;;;;;;5028161;28;20299;-71
2022/06/22 07:59:27;;;;;;;2.75;2.58;;;25.40;97.40;;;;;;5021748;28;20219;-72
2022/06/22 08:01:57;;;;;;;4.78;2.72;;;25.60;95.90;;;;;;5018979;28;20180;-71
2022/06/22 08:04:49;;;;;;;4.40;2.80;;;25.50;97.40;;;;;;5020149;28;20185;-73
2022/06/22 08:07:39;;;;;;;2.72;2.58;;;25.60;97.80;;;;;;5022993;28;20273;-71
2022/06/22 08:10:19;;;;;;;2.05;1.95;;;25.70;98.30;;;;;;5011290;28;20263;-70
2022/06/22 08:13:13;;;;;;;3.10;2.90;;;25.70;96.60;;;;;;5016509;28;20228;-70
2022/06/22 08:15:47;;;;;;;5.07;2.72;;;25.60;98.50;;;;;;5033293;28;20256;-72
2022/06/22 08:18:14;;;;;;;3.00;2.72;;;25.60;98.10;;;;;;5041967;28;20235;-71
2022/06/22 08:20:43;;;;;;;2.92;2.65;;;25.70;97.90;;;;;;5023211;28;20212;-71
2022/06/22 08:23:18;;;;;;;3.60;2.65;;;25.70;99.60;;;;;;5025505;28;20655;-70
2022/06/22 08:25:47;;;;;;;5.15;2.90;;;25.80;99.20;;;;;;5028729;28;20203;-73
2022/06/22 08:28:22;;;;;;;3.00;2.50;;;25.80;98.20;;;;;;5020834;28;20177;-70
2022/06/22 08:30:51;;;;;;;4.55;2.55;;;25.90;98.80;;;;;;5019846;28;20199;-73
2022/06/22 08:33:24;;;;;;;4.10;3.05;;;26.10;98.60;;;;;;5019727;28;20205;-71
2022/06/22 08:35:54;;;;;;;3.42;2.78;;;26.10;99.60;;;;;;5016978;28;20184;-70
2022/06/22 08:38:48;;;;;;;3.03;2.72;;;26.20;97.80;;;;;;5025128;28;20698;-72
2022/06/22 08:42:00;;;;;;;2.53;2.33;;;26.20;97.30;;;;;;5029210;28;20188;-73
2022/06/22 08:44:54;;;;;;;3.95;2.78;;;26.10;98.40;;;;;;5017220;28;20188;-70
2022/06/22 08:47:49;;;;;;;3.00;2.70;;;26.60;98.30;;;;;;5029348;28;20643;-71
2022/06/22 08:50:40;;;;;;;2.90;2.42;;;27.40;96.30;;;;;;5025085;28;20176;-71
2022/06/22 08:53:27;;;;;;;2.83;2.45;;;28.30;94.50;;;;;;5021483;28;20202;-71
2022/06/22 08:55:53;;;;;;;2.80;2.45;;;28.60;93.40;;;;;;5017374;28;20184;-70
2022/06/22 08:58:40;;;;;;;4.18;2.60;;;29.10;91.60;;;;;;5017384;28;20196;-72
2022/06/22 09:01:33;;;;;;;4.57;2.65;;;29.30;91.20;;;;;;5016723;28;20188;-71
2022/06/22 09:04:22;;;;;;;3.28;2.58;;;29.20;90.30;;;;;;5023670;28;20860;-71
2022/06/22 09:07:24;;;;;;;3.78;2.88;;;29.40;90.40;;;;;;5024159;28;20180;-70
2022/06/22 09:10:17;;;;;;;3.70;2.97;;;29.50;90.70;;;;;;5021819;28;20176;-70
2022/06/22 09:13:22;;;;;;;4.10;2.92;;;29.90;88.40;;;;;;5029114;28;20205;-71
2022/06/22 09:16:09;;;;;;;2.85;2.53;;;30.10;90.30;;;;;;5014520;28;20272;-70
2022/06/22 09:18:59;;;;;;;4.50;2.63;;;30.10;89.70;;;;;;5014489;28;20664;-72
2022/06/22 09:22:00;;;;;;;2.58;2.40;;;30.20;88.50;;;;;;5014547;28;20216;-71
2022/06/22 09:24:47;;;;;;;4.45;2.70;;;30.70;88.70;;;;;;5014560;28;20243;-70
2022/06/22 09:27:42;;;;;;;2.72;2.53;;;31.40;85.10;;;;;;5023067;28;20169;-70
2022/06/22 09:30:23;;;;;;;4.13;2.83;;;31.80;82.80;;;;;;5022910;28;20611;-70
2022/06/22 09:32:51;;;;;;;2.78;2.50;;;31.90;81.30;;;;;;5033068;28;20579;-70
2022/06/22 09:35:19;;;;;;;3.10;2.58;;;32.10;78.80;;;;;;5035839;28;20195;-69
2022/06/22 09:37:49;;;;;;;3.70;2.35;;;32.00;77.50;;;;;;5034629;28;20204;-69
2022/06/22 09:40:33;;;;;;;5.93;2.90;;;32.00;77.80;;;;;;5035862;28;20229;-70
2022/06/22 09:43:20;;;;;;;4.55;2.95;;;32.10;81.50;;;;;;5028640;28;20199;-70
2022/06/22 09:46:07;;;;;;;2.70;2.50;;;32.80;78.90;;;;;;5040124;28;20171;-70
2022/06/22 09:48:50;;;;;;;2.78;2.58;;;33.80;74.00;;;;;;5024807;28;20659;-69
2022/06/22 09:51:45;;;;;;;4.40;2.28;;;34.40;69.80;;;;;;5026115;28;20188;-72
2022/06/22 09:57:27;;;;;;;2.67;2.47;;;33.90;71.20;;;;;;5024807;28;20566;-69
2022/06/22 09:59:53;;;;;;;2.67;2.47;;;33.60;72.20;;;;;;5027019;28;20181;-70
2022/06/22 10:02:48;;;;;;;3.38;2.60;;;33.50;73.20;;;;;;5027469;28;20202;-70
2022/06/22 10:05:22;;;;;;;3.30;2.17;;;33.70;72.30;;;;;;5037780;28;20557;-70
2022/06/22 10:07:57;;;;;;;2.50;2.17;;;33.50;71.00;;;;;;5024860;28;20216;-70
2022/06/22 10:10:54;;;;;;;4.32;2.45;;;32.80;73.40;;;;;;5021639;28;20226;-70
2022/06/22 10:14:00;;;;;;;3.28;2.53;;;32.10;75.90;;;;;;5023411;28;20199;-69
2022/06/22 10:16:48;;;;;;;2.70;2.50;;;31.40;76.50;;;;;;5029191;28;20188;-69
2022/06/22 10:19:26;;;;;;;6.75;3.03;;;31.20;77.50;;;;;;5018267;28;20295;-69
2022/06/22 10:22:36;;;;;;;5.03;2.80;;;30.70;79.80;;;;;;5027234;28;20183;-67
2022/06/22 10:25:28;;;;;;;4.55;3.00;;;30.30;82.00;;;;;;5020093;28;20193;-68
2022/06/22 10:28:47;;;;;;;5.10;2.83;;;30.10;81.00;;;;;;5024769;28;20192;-68
2022/06/22 10:31:23;;;;;;;3.08;2.78;;;30.00;81.80;;;;;;4963325;28;20663;-67
2022/06/22 10:34:28;;;;;;;3.42;2.55;;;29.80;84.50;;;;;;4969960;28;20201;-72
2022/06/22 10:37:13;;;;;;;4.70;3.30;;;29.50;85.30;;;;;;5004115;28;20199;-67
2022/06/22 10:39:41;;;;;;;5.05;2.72;;;29.30;85.60;;;;;;5043237;28;20181;-67
2022/06/22 10:45:47;;;;;;;3.75;2.85;;;28.50;89.70;;;;;;5020494;28;20168;-71
2022/06/22 10:48:39;;;;;;;4.47;4.07;;;28.50;90.40;;;;;;5023650;28;20279;-76
2022/06/22 10:51:31;;;;;;;3.28;2.88;;;28.20;90.30;;;;;;5040482;28;20211;-75
2022/06/22 10:54:21;;;;;;;5.63;3.08;;;28.00;91.20;;;;;;5022815;28;20204;-77
2022/06/22 10:57:05;;;;;;;4.78;3.72;;;27.70;91.80;;;;;;5022635;28;20183;-76
2022/06/22 11:00:14;;;;;;;3.40;3.03;;;27.70;92.50;;;;;;5022467;28;20688;-75
2022/06/22 11:02:46;;;;;;;4.78;3.17;;;27.70;93.40;;;;;;4998586;28;20209;-77
2022/06/22 11:05:17;;;;;;;3.45;2.88;;;27.60;94.10;;;;;;5025874;28;20234;-76
2022/06/22 11:08:01;;;;;;;5.40;4.03;;;27.50;95.10;;;;;;5027945;28;20184;-75
2022/06/22 11:10:44;;;;;;;4.30;4.00;;;27.20;99.90;;;;;;5045235;28;20720;-74
2022/06/22 11:13:48;;;;;;;5.53;4.20;;;26.60;99.90;;;;;;5051656;28;20670;-75
2022/06/22 11:16:40;;;;;;;5.95;5.10;;;25.80;99.90;;;;;;5021745;28;20268;-75
2022/06/22 11:19:27;;;;;;;6.97;3.30;;;25.20;99.90;;;;;;5011981;28;20694;-75
2022/06/22 11:22:24;;;;;;;4.97;3.35;;;24.80;99.90;;;;;;5016628;28;20188;-75
2022/06/22 11:25:02;;;;;;;6.03;3.33;;;24.60;99.90;;;;;;5013407;28;20629;-75
2022/06/22 11:30:58;;;;;;;4.07;3.38;;;25.10;99.90;;;;;;5012426;28;20733;-74
2022/06/22 11:33:54;;;;;;;4.78;3.42;;;25.70;99.90;;;;;;5020036;28;20631;-75
2022/06/22 11:36:26;;;;;;;5.90;4.20;;;26.40;99.90;;;;;;5021464;28;20592;-74
2022/06/22 11:39:01;;;;;;;3.63;3.30;;;27.10;99.90;;;;;;5024912;28;20212;-74
2022/06/22 11:41:39;;;;;;;6.05;3.78;;;27.60;99.90;;;;;;5020290;28;20710;-77
2022/06/22 11:45:49;;;;;;;5.15;3.40;;;28.30;99.90;;;;;;5012726;28;20197;-77
2022/06/22 11:47:53;;;;;;;3.83;3.17;;;28.60;99.90;;;;;;5024546;28;20226;-74
2022/06/22 11:50:18;;;;;;;6.35;3.42;;;28.80;99.90;;;;;;5020564;28;20184;-75
2022/06/22 11:53:19;;;;;;;3.45;2.80;;;29.00;97.90;;;;;;5030618;28;20566;-76
2022/06/22 11:55:49;;;;;;;3.30;3.00;;;28.80;96.90;;;;;;5014971;28;20197;-76
2022/06/22 11:58:31;;;;;;;3.88;3.08;;;28.40;98.30;;;;;;5017780;28;20217;-72
2022/06/22 12:01:28;;;;;;;4.55;3.75;;;28.10;99.90;;;;;;5021392;28;20392;-71
2022/06/22 12:04:03;;;;;;;3.80;3.08;;;28.10;98.90;;;;;;5017398;28;20231;-77
2022/06/22 12:07:00;;;;;;;4.20;2.95;;;28.20;98.50;;;;;;5029657;28;20651;-72
2022/06/22 12:09:52;;;;;;;3.47;3.25;;;28.30;98.50;;;;;;5016457;28;20180;-71
2022/06/22 12:12:46;;;;;;;3.97;3.55;;;28.40;96.60;;;;;;5013545;28;20251;-71
2022/06/22 12:15:42;;;;;;;4.50;3.10;;;28.40;96.90;;;;;;5018307;28;20181;-71
2022/06/22 12:18:32;;;;;;;5.97;3.63;;;28.40;97.70;;;;;;5016094;28;20255;-71
2022/06/22 12:21:19;;;;;;;4.28;3.13;;;28.70;98.30;;;;;;5017865;28;20169;-71
2022/06/22 12:23:59;;;;;;;2.80;2.60;;;29.00;95.90;;;;;;5022153;28;20683;-71
2022/06/22 12:26:27;;;;;;;3.67;2.95;;;29.40;94.70;;;;;;5023562;28;20192;-75
2022/06/22 12:29:06;;;;;;;2.83;2.53;;;29.60;95.00;;;;;;5020771;28;20207;-71
2022/06/22 12:31:55;;;;;;;5.03;2.97;;;29.70;94.60;;;;;;5018436;28;20204;-71
2022/06/22 12:34:35;;;;;;;3.60;2.92;;;29.90;94.10;;;;;;5017285;28;20185;-74
2022/06/22 12:37:19;;;;;;;5.03;3.35;;;30.00;92.90;;;;;;5025137;28;20180;-71
2022/06/22 12:39:52;;;;;;;3.72;3.33;;;30.30;92.40;;;;;;5031580;28;20187;-71
2022/06/22 12:42:49;;;;;;;3.53;2.90;;;30.50;92.40;;;;;;5026806;28;20189;-71
2022/06/22 12:45:14;;;;;;;2.78;2.53;;;30.80;92.40;;;;;;5027188;28;20734;-71
2022/06/22 12:47:40;;;;;;;5.70;3.10;;;31.10;94.40;;;;;;5038432;28;20271;-73
2022/06/22 12:50:51;;;;;;;4.18;3.15;;;31.10;92.40;;;;;;5021430;28;20190;-73
2022/06/22 12:53:24;;;;;;;6.47;3.40;;;31.10;91.70;;;;;;5020935;28;20239;-71
2022/06/22 12:55:56;;;;;;;6.07;3.30;;;31.40;90.90;;;;;;5027293;28;20258;-72
2022/06/22 12:58:48;;;;;;;3.70;2.83;;;31.20;90.80;;;;;;5031570;28;20282;-76
2022/06/22 13:01:13;;;;;;;4.10;3.28;;;31.50;89.60;;;;;;5016339;28;20149;-72
2022/06/22 13:03:43;;;;;;;4.30;2.85;;;31.80;86.50;;;;;;5024204;28;20785;-72
2022/06/22 13:06:09;;;;;;;5.88;3.35;;;32.00;85.30;;;;;;5029183;28;20175;-72
2022/06/22 13:08:36;;;;;;;3.67;2.95;;;32.20;86.50;;;;;;5021477;28;20176;-75
2022/06/22 13:11:06;;;;;;;5.97;2.78;;;32.50;86.20;;;;;;5033509;28;20365;-71
2022/06/22 13:13:38;;;;;;;4.63;2.88;;;32.60;82.60;;;;;;5032906;28;20252;-74
2022/06/22 13:16:30;;;;;;;9.07;3.30;;;32.70;83.10;;;;;;5034697;28;20226;-75
2022/06/22 13:19:16;;;;;;;5.55;3.15;;;32.40;83.40;;;;;;5032205;28;20298;-73
2022/06/22 13:22:02;;;;;;;3.90;2.90;;;32.40;82.30;;;;;;5030653;28;20260;-72
2022/06/22 13:24:33;;;;;;;5.40;2.45;;;32.20;84.20;;;;;;5024281;28;20679;-72
2022/06/22 13:27:27;;;;;;;3.63;2.60;;;32.20;84.20;;;;;;5028091;28;20525;-72
2022/06/22 13:30:05;;;;;;;5.00;3.00;;;32.30;81.70;;;;;;5029925;28;20199;-73
2022/06/22 13:32:33;;;;;;;7.03;3.03;;;32.50;81.10;;;;;;5035523;28;20670;-73
2022/06/22 13:35:04;;;;;;;4.80;2.50;;;32.70;81.80;;;;;;5027728;28;20718;-73
2022/06/22 13:38:06;;;;;;;3.20;2.72;;;32.70;83.30;;;;;;5025216;28;20547;-71
2022/06/22 13:40:58;;;;;;;3.15;2.80;;;33.50;80.50;;;;;;5027550;28;20172;-72
2022/06/22 13:43:51;;;;;;;6.00;3.05;;;34.40;80.40;;;;;;5026808;28;20702;-69
2022/06/22 13:46:23;;;;;;;4.43;2.97;;;36.00;75.90;;;;;;5017805;28;20191;-69
2022/06/22 13:49:13;;;;;;;5.05;3.15;;;36.80;71.70;;;;;;5026305;28;20180;-69
2022/06/22 13:51:51;;;;;;;3.15;2.88;;;36.70;69.80;;;;;;5030199;28;20226;-72
2022/06/22 13:54:35;;;;;;;3.45;2.88;;;37.00;69.00;;;;;;5031914;28;20694;-69
2022/06/22 13:57:31;;;;;;;3.78;2.85;;;36.80;69.50;;;;;;5040911;28;20175;-69
2022/06/22 14:00:11;;;;;;;2.85;2.53;;;36.60;69.60;;;;;;5039542;28;20188;-69
2022/06/22 14:03:12;;;;;;;3.15;2.85;;;37.00;67.60;;;;;;5031681;28;20203;-69
2022/06/22 14:05:44;;;;;;;5.30;3.15;;;38.30;63.60;;;;;;5024018;28;20184;-71
2022/06/22 14:08:31;;;;;;;5.53;3.40;;;38.90;60.50;;;;;;5045758;28;20179;-73
2022/06/22 14:11:05;;;;;;;4.20;2.85;;;37.60;62.70;;;;;;5052967;28;20171;-71